sensor_id;sensor_type;location;lat;lon;timestamp;temperature;humidity
21425;DHT22;10873;51.132;16.848;2023-04-26T00:01:20;23.90;48.90
21425;DHT22;10873;51.132;16.848;2023-04-26T00:03:47;23.90;48.90
21425;DHT22;10873;51.132;16.848;2023-04-26T00:06:13;23.90;48.80
21425;DHT22;10873;51.132;16.848;2023-04-26T00:08:39;23.90;48.80
21425;DHT22;10873;51.132;16.848;2023-04-26T00:11:07;23.90;48.80
21425;DHT22;10873;51.132;16.848;2023-04-26T00:13:33;23.90;48.80
21425;DHT22;10873;51.132;16.848;2023-04-26T00:15:59;23.90;48.80
21425;DHT22;10873;51.132;16.848;2023-04-26T00:18:26;23.90;48.90
21425;DHT22;10873;51.132;16.848;2023-04-26T00:20:53;23.90;48.90
21425;DHT22;10873;51.132;16.848;2023-04-26T00:23:19;23.80;48.90
21425;DHT22;10873;51.132;16.848;2023-04-26T00:25:45;23.90;49.60
21425;DHT22;10873;51.132;16.848;2023-04-26T00:28:11;23.80;49.30
21425;DHT22;10873;51.132;16.848;2023-04-26T00:30:37;23.80;48.90
21425;DHT22;10873;51.132;16.848;2023-04-26T00:33:06;23.80;48.90
21425;DHT22;10873;51.132;16.848;2023-04-26T00:35:34;23.80;48.80
21425;DHT22;10873;51.132;16.848;2023-04-26T00:38:00;23.90;48.90
21425;DHT22;10873;51.132;16.848;2023-04-26T00:40:26;23.90;48.80
21425;DHT22;10873;51.132;16.848;2023-04-26T00:42:56;23.80;48.70
21425;DHT22;10873;51.132;16.848;2023-04-26T00:45:23;23.90;48.80
21425;DHT22;10873;51.132;16.848;2023-04-26T00:47:49;23.90;48.80
21425;DHT22;10873;51.132;16.848;2023-04-26T00:50:15;23.80;48.80
21425;DHT22;10873;51.132;16.848;2023-04-26T00:52:43;23.90;48.90
21425;DHT22;10873;51.132;16.848;2023-04-26T00:55:10;23.80;48.80
21425;DHT22;10873;51.132;16.848;2023-04-26T00:57:37;23.80;48.80
21425;DHT22;10873;51.132;16.848;2023-04-26T01:00:05;23.90;48.80
21425;DHT22;10873;51.132;16.848;2023-04-26T01:02:31;23.80;48.70
21425;DHT22;10873;51.132;16.848;2023-04-26T01:04:57;23.80;48.70
21425;DHT22;10873;51.132;16.848;2023-04-26T01:07:23;23.80;48.70
21425;DHT22;10873;51.132;16.848;2023-04-26T01:09:51;23.80;48.70
21425;DHT22;10873;51.132;16.848;2023-04-26T01:12:17;23.80;48.70
21425;DHT22;10873;51.132;16.848;2023-04-26T01:14:44;23.80;48.70
21425;DHT22;10873;51.132;16.848;2023-04-26T01:17:10;23.80;48.80
21425;DHT22;10873;51.132;16.848;2023-04-26T01:19:46;23.80;48.70
21425;DHT22;10873;51.132;16.848;2023-04-26T01:22:11;23.80;48.70
21425;DHT22;10873;51.132;16.848;2023-04-26T01:24:40;23.80;48.70
21425;DHT22;10873;51.132;16.848;2023-04-26T01:27:07;23.80;48.70
21425;DHT22;10873;51.132;16.848;2023-04-26T01:29:34;23.80;48.70
21425;DHT22;10873;51.132;16.848;2023-04-26T01:32:00;23.80;48.70
21425;DHT22;10873;51.132;16.848;2023-04-26T01:34:27;23.80;48.60
21425;DHT22;10873;51.132;16.848;2023-04-26T01:36:53;23.80;48.70
21425;DHT22;10873;51.132;16.848;2023-04-26T01:39:19;23.80;48.60
21425;DHT22;10873;51.132;16.848;2023-04-26T01:41:46;23.70;48.60
21425;DHT22;10873;51.132;16.848;2023-04-26T01:44:12;23.70;48.60
21425;DHT22;10873;51.132;16.848;2023-04-26T01:46:38;23.80;48.70
21425;DHT22;10873;51.132;16.848;2023-04-26T01:49:05;23.70;48.60
21425;DHT22;10873;51.132;16.848;2023-04-26T01:51:31;23.80;48.70
21425;DHT22;10873;51.132;16.848;2023-04-26T01:53:57;23.70;48.60
21425;DHT22;10873;51.132;16.848;2023-04-26T01:56:23;23.80;48.60
21425;DHT22;10873;51.132;16.848;2023-04-26T01:58:51;23.80;48.60
21425;DHT22;10873;51.132;16.848;2023-04-26T02:01:17;23.70;48.50
21425;DHT22;10873;51.132;16.848;2023-04-26T02:03:43;23.80;48.60
21425;DHT22;10873;51.132;16.848;2023-04-26T02:06:09;23.70;48.60
21425;DHT22;10873;51.132;16.848;2023-04-26T02:08:35;23.70;48.60
21425;DHT22;10873;51.132;16.848;2023-04-26T02:11:01;23.70;48.60
21425;DHT22;10873;51.132;16.848;2023-04-26T02:13:28;23.70;48.60
21425;DHT22;10873;51.132;16.848;2023-04-26T02:15:55;23.70;48.60
21425;DHT22;10873;51.132;16.848;2023-04-26T02:18:21;23.80;48.60
21425;DHT22;10873;51.132;16.848;2023-04-26T02:20:48;23.80;48.60
21425;DHT22;10873;51.132;16.848;2023-04-26T02:23:14;23.80;48.60
21425;DHT22;10873;51.132;16.848;2023-04-26T02:25:40;23.70;48.50
21425;DHT22;10873;51.132;16.848;2023-04-26T02:28:07;23.80;48.60
21425;DHT22;10873;51.132;16.848;2023-04-26T02:30:33;23.80;48.60
21425;DHT22;10873;51.132;16.848;2023-04-26T02:33:01;23.80;49.30
21425;DHT22;10873;51.132;16.848;2023-04-26T02:35:26;23.70;48.60
21425;DHT22;10873;51.132;16.848;2023-04-26T02:37:53;23.80;48.60
21425;DHT22;10873;51.132;16.848;2023-04-26T02:40:19;23.80;48.60
21425;DHT22;10873;51.132;16.848;2023-04-26T02:42:45;23.70;48.60
21425;DHT22;10873;51.132;16.848;2023-04-26T02:45:12;23.80;48.70
21425;DHT22;10873;51.132;16.848;2023-04-26T02:47:38;23.80;48.60
21425;DHT22;10873;51.132;16.848;2023-04-26T02:50:07;23.80;48.60
21425;DHT22;10873;51.132;16.848;2023-04-26T02:52:34;23.80;48.60
21425;DHT22;10873;51.132;16.848;2023-04-26T02:55:00;23.80;48.60
21425;DHT22;10873;51.132;16.848;2023-04-26T02:57:27;23.80;48.60
21425;DHT22;10873;51.132;16.848;2023-04-26T02:59:53;23.80;48.50
21425;DHT22;10873;51.132;16.848;2023-04-26T03:02:20;23.70;48.50
21425;DHT22;10873;51.132;16.848;2023-04-26T03:04:46;23.80;48.50
21425;DHT22;10873;51.132;16.848;2023-04-26T03:07:14;23.70;48.50
21425;DHT22;10873;51.132;16.848;2023-04-26T03:09:40;23.80;48.50
21425;DHT22;10873;51.132;16.848;2023-04-26T03:12:07;23.80;48.50
21425;DHT22;10873;51.132;16.848;2023-04-26T03:14:33;23.70;48.50
21425;DHT22;10873;51.132;16.848;2023-04-26T03:17:01;23.70;48.50
21425;DHT22;10873;51.132;16.848;2023-04-26T03:19:27;23.80;48.50
21425;DHT22;10873;51.132;16.848;2023-04-26T03:21:54;23.80;48.50
21425;DHT22;10873;51.132;16.848;2023-04-26T03:24:21;23.80;48.50
21425;DHT22;10873;51.132;16.848;2023-04-26T03:26:48;23.80;48.50
21425;DHT22;10873;51.132;16.848;2023-04-26T03:29:15;23.70;48.50
21425;DHT22;10873;51.132;16.848;2023-04-26T03:31:42;23.80;48.50
21425;DHT22;10873;51.132;16.848;2023-04-26T03:34:07;23.80;48.50
21425;DHT22;10873;51.132;16.848;2023-04-26T03:36:34;23.80;48.50
21425;DHT22;10873;51.132;16.848;2023-04-26T03:39:00;23.80;48.50
21425;DHT22;10873;51.132;16.848;2023-04-26T03:41:28;23.80;48.60
21425;DHT22;10873;51.132;16.848;2023-04-26T03:43:53;23.80;48.50
21425;DHT22;10873;51.132;16.848;2023-04-26T03:46:20;23.80;48.60
21425;DHT22;10873;51.132;16.848;2023-04-26T03:48:46;23.80;48.50
21425;DHT22;10873;51.132;16.848;2023-04-26T03:51:12;23.80;48.50
21425;DHT22;10873;51.132;16.848;2023-04-26T03:53:38;23.80;48.50
21425;DHT22;10873;51.132;16.848;2023-04-26T03:56:04;23.80;48.50
21425;DHT22;10873;51.132;16.848;2023-04-26T03:58:32;23.80;48.50
21425;DHT22;10873;51.132;16.848;2023-04-26T04:00:58;23.80;48.50
21425;DHT22;10873;51.132;16.848;2023-04-26T04:03:24;23.80;48.50
21425;DHT22;10873;51.132;16.848;2023-04-26T04:05:50;23.80;48.50
21425;DHT22;10873;51.132;16.848;2023-04-26T04:08:16;23.80;48.60
21425;DHT22;10873;51.132;16.848;2023-04-26T04:10:43;23.80;49.30
21425;DHT22;10873;51.132;16.848;2023-04-26T04:13:09;23.80;49.70
21425;DHT22;10873;51.132;16.848;2023-04-26T04:15:37;23.80;49.20
21425;DHT22;10873;51.132;16.848;2023-04-26T04:18:03;23.80;49.10
21425;DHT22;10873;51.132;16.848;2023-04-26T04:20:29;23.80;49.00
21425;DHT22;10873;51.132;16.848;2023-04-26T04:22:55;23.80;48.90
21425;DHT22;10873;51.132;16.848;2023-04-26T04:25:23;23.90;49.00
21425;DHT22;10873;51.132;16.848;2023-04-26T04:27:50;23.90;49.00
21425;DHT22;10873;51.132;16.848;2023-04-26T04:30:18;23.90;49.00
21425;DHT22;10873;51.132;16.848;2023-04-26T04:32:45;23.90;49.00
21425;DHT22;10873;51.132;16.848;2023-04-26T04:35:11;23.90;49.00
21425;DHT22;10873;51.132;16.848;2023-04-26T04:37:38;23.80;49.00
21425;DHT22;10873;51.132;16.848;2023-04-26T04:40:05;23.80;49.00
21425;DHT22;10873;51.132;16.848;2023-04-26T04:42:33;23.80;49.00
21425;DHT22;10873;51.132;16.848;2023-04-26T04:44:59;23.80;49.20
21425;DHT22;10873;51.132;16.848;2023-04-26T04:47:25;23.90;49.40
21425;DHT22;10873;51.132;16.848;2023-04-26T04:49:53;23.90;49.40
21425;DHT22;10873;51.132;16.848;2023-04-26T04:52:19;23.80;49.30
21425;DHT22;10873;51.132;16.848;2023-04-26T04:54:46;23.80;49.10
21425;DHT22;10873;51.132;16.848;2023-04-26T04:57:12;23.90;49.10
21425;DHT22;10873;51.132;16.848;2023-04-26T04:59:39;23.90;49.20
21425;DHT22;10873;51.132;16.848;2023-04-26T05:02:05;24.00;49.20
21425;DHT22;10873;51.132;16.848;2023-04-26T05:04:31;24.00;49.20
21425;DHT22;10873;51.132;16.848;2023-04-26T05:07:00;24.00;49.30
21425;DHT22;10873;51.132;16.848;2023-04-26T05:09:27;24.00;50.40
21425;DHT22;10873;51.132;16.848;2023-04-26T05:11:53;24.10;50.20
21425;DHT22;10873;51.132;16.848;2023-04-26T05:14:19;24.10;49.90
21425;DHT22;10873;51.132;16.848;2023-04-26T05:16:45;24.10;49.60
21425;DHT22;10873;51.132;16.848;2023-04-26T05:19:11;24.10;49.20
21425;DHT22;10873;51.132;16.848;2023-04-26T05:21:38;24.20;49.10
21425;DHT22;10873;51.132;16.848;2023-04-26T05:24:05;24.10;48.80
21425;DHT22;10873;51.132;16.848;2023-04-26T05:26:31;24.20;48.70
21425;DHT22;10873;51.132;16.848;2023-04-26T05:28:58;24.20;48.50
21425;DHT22;10873;51.132;16.848;2023-04-26T05:31:24;24.20;48.30
21425;DHT22;10873;51.132;16.848;2023-04-26T05:33:50;24.20;48.20
21425;DHT22;10873;51.132;16.848;2023-04-26T05:36:16;24.20;48.20
21425;DHT22;10873;51.132;16.848;2023-04-26T05:38:43;24.20;48.20
21425;DHT22;10873;51.132;16.848;2023-04-26T05:41:10;24.20;47.80
21425;DHT22;10873;51.132;16.848;2023-04-26T05:43:36;24.20;47.10
21425;DHT22;10873;51.132;16.848;2023-04-26T05:46:02;24.20;47.70
21425;DHT22;10873;51.132;16.848;2023-04-26T05:48:28;24.20;47.70
21425;DHT22;10873;51.132;16.848;2023-04-26T05:50:54;24.20;47.70
21425;DHT22;10873;51.132;16.848;2023-04-26T05:53:20;24.20;47.70
21425;DHT22;10873;51.132;16.848;2023-04-26T05:55:46;24.20;47.60
21425;DHT22;10873;51.132;16.848;2023-04-26T05:58:14;24.20;47.60
21425;DHT22;10873;51.132;16.848;2023-04-26T06:00:40;24.20;47.60
21425;DHT22;10873;51.132;16.848;2023-04-26T06:03:07;24.20;47.60
21425;DHT22;10873;51.132;16.848;2023-04-26T06:05:35;24.20;47.60
21425;DHT22;10873;51.132;16.848;2023-04-26T06:08:03;24.30;47.70
21425;DHT22;10873;51.132;16.848;2023-04-26T06:10:28;24.30;47.60
21425;DHT22;10873;51.132;16.848;2023-04-26T06:12:55;24.40;47.60
21425;DHT22;10873;51.132;16.848;2023-04-26T06:15:22;24.30;47.50
21425;DHT22;10873;51.132;16.848;2023-04-26T06:17:48;24.40;47.40
21425;DHT22;10873;51.132;16.848;2023-04-26T06:20:14;24.40;47.40
21425;DHT22;10873;51.132;16.848;2023-04-26T06:22:41;24.40;47.40
21425;DHT22;10873;51.132;16.848;2023-04-26T06:25:07;24.40;47.30
21425;DHT22;10873;51.132;16.848;2023-04-26T06:27:33;24.40;47.30
21425;DHT22;10873;51.132;16.848;2023-04-26T06:30:00;24.40;47.40
21425;DHT22;10873;51.132;16.848;2023-04-26T06:32:30;24.40;47.40
21425;DHT22;10873;51.132;16.848;2023-04-26T06:34:56;24.40;47.40
21425;DHT22;10873;51.132;16.848;2023-04-26T06:37:22;24.40;47.40
21425;DHT22;10873;51.132;16.848;2023-04-26T06:39:48;24.40;47.40
21425;DHT22;10873;51.132;16.848;2023-04-26T06:42:14;24.50;47.40
21425;DHT22;10873;51.132;16.848;2023-04-26T06:44:40;24.50;47.40
21425;DHT22;10873;51.132;16.848;2023-04-26T06:47:07;24.50;47.40
21425;DHT22;10873;51.132;16.848;2023-04-26T06:49:35;24.50;47.40
21425;DHT22;10873;51.132;16.848;2023-04-26T06:52:02;24.50;47.30
21425;DHT22;10873;51.132;16.848;2023-04-26T06:54:28;24.50;47.30
21425;DHT22;10873;51.132;16.848;2023-04-26T06:56:54;24.50;47.30
21425;DHT22;10873;51.132;16.848;2023-04-26T06:59:20;24.50;47.30
21425;DHT22;10873;51.132;16.848;2023-04-26T07:01:47;24.50;47.30
21425;DHT22;10873;51.132;16.848;2023-04-26T07:04:13;24.50;47.40
21425;DHT22;10873;51.132;16.848;2023-04-26T07:06:41;24.50;47.40
21425;DHT22;10873;51.132;16.848;2023-04-26T07:09:07;24.50;48.00
21425;DHT22;10873;51.132;16.848;2023-04-26T07:11:33;24.50;47.30
21425;DHT22;10873;51.132;16.848;2023-04-26T07:13:59;24.50;47.10
21425;DHT22;10873;51.132;16.848;2023-04-26T07:16:25;24.60;47.20
21425;DHT22;10873;51.132;16.848;2023-04-26T07:18:51;24.50;47.20
21425;DHT22;10873;51.132;16.848;2023-04-26T07:21:18;24.50;47.20
21425;DHT22;10873;51.132;16.848;2023-04-26T07:23:45;24.50;47.20
21425;DHT22;10873;51.132;16.848;2023-04-26T07:26:11;24.50;47.20
21425;DHT22;10873;51.132;16.848;2023-04-26T07:28:37;24.50;47.10
21425;DHT22;10873;51.132;16.848;2023-04-26T07:31:03;24.50;47.00
21425;DHT22;10873;51.132;16.848;2023-04-26T07:33:29;24.50;47.00
21425;DHT22;10873;51.132;16.848;2023-04-26T07:35:57;24.50;47.00
21425;DHT22;10873;51.132;16.848;2023-04-26T07:38:24;24.50;47.00
21425;DHT22;10873;51.132;16.848;2023-04-26T07:40:52;24.50;47.00
21425;DHT22;10873;51.132;16.848;2023-04-26T07:43:19;24.60;47.10
21425;DHT22;10873;51.132;16.848;2023-04-26T07:45:45;24.60;47.10
21425;DHT22;10873;51.132;16.848;2023-04-26T07:48:11;24.60;46.90
21425;DHT22;10873;51.132;16.848;2023-04-26T07:50:37;24.60;47.00
21425;DHT22;10873;51.132;16.848;2023-04-26T07:53:03;24.60;46.80
21425;DHT22;10873;51.132;16.848;2023-04-26T07:55:30;24.60;46.80
21425;DHT22;10873;51.132;16.848;2023-04-26T07:57:57;24.60;46.70
21425;DHT22;10873;51.132;16.848;2023-04-26T08:00:23;24.60;46.70
21425;DHT22;10873;51.132;16.848;2023-04-26T08:02:49;24.60;47.30
21425;DHT22;10873;51.132;16.848;2023-04-26T08:05:16;24.70;46.60
21425;DHT22;10873;51.132;16.848;2023-04-26T08:07:42;24.60;46.50
21425;DHT22;10873;51.132;16.848;2023-04-26T08:10:09;24.60;46.50
21425;DHT22;10873;51.132;16.848;2023-04-26T08:12:36;24.60;46.40
21425;DHT22;10873;51.132;16.848;2023-04-26T08:15:05;24.60;46.40
21425;DHT22;10873;51.132;16.848;2023-04-26T08:17:31;24.60;46.40
21425;DHT22;10873;51.132;16.848;2023-04-26T08:19:57;24.70;46.40
21425;DHT22;10873;51.132;16.848;2023-04-26T08:22:23;24.70;46.40
21425;DHT22;10873;51.132;16.848;2023-04-26T08:24:52;24.70;46.40
21425;DHT22;10873;51.132;16.848;2023-04-26T08:27:18;24.70;46.40
21425;DHT22;10873;51.132;16.848;2023-04-26T08:29:45;24.70;46.30
21425;DHT22;10873;51.132;16.848;2023-04-26T08:32:12;24.70;46.30
21425;DHT22;10873;51.132;16.848;2023-04-26T08:34:39;24.70;46.20
21425;DHT22;10873;51.132;16.848;2023-04-26T08:37:06;24.70;46.20
21425;DHT22;10873;51.132;16.848;2023-04-26T08:39:32;24.70;46.30
21425;DHT22;10873;51.132;16.848;2023-04-26T08:42:04;24.70;46.40
21425;DHT22;10873;51.132;16.848;2023-04-26T08:44:33;24.70;46.40
21425;DHT22;10873;51.132;16.848;2023-04-26T08:47:02;24.70;46.30
21425;DHT22;10873;51.132;16.848;2023-04-26T08:49:39;24.70;46.30
21425;DHT22;10873;51.132;16.848;2023-04-26T08:52:08;24.60;46.20
21425;DHT22;10873;51.132;16.848;2023-04-26T08:54:36;24.60;46.20
21425;DHT22;10873;51.132;16.848;2023-04-26T08:57:02;24.60;46.20
21425;DHT22;10873;51.132;16.848;2023-04-26T08:59:29;24.60;46.30
21425;DHT22;10873;51.132;16.848;2023-04-26T09:01:56;24.60;46.20
21425;DHT22;10873;51.132;16.848;2023-04-26T09:04:23;24.60;46.20
21425;DHT22;10873;51.132;16.848;2023-04-26T09:06:52;24.70;46.20
21425;DHT22;10873;51.132;16.848;2023-04-26T09:09:22;24.70;46.20
21425;DHT22;10873;51.132;16.848;2023-04-26T09:11:55;24.70;46.10
21425;DHT22;10873;51.132;16.848;2023-04-26T09:14:23;24.70;46.10
21425;DHT22;10873;51.132;16.848;2023-04-26T09:16:49;24.70;46.00
21425;DHT22;10873;51.132;16.848;2023-04-26T09:19:15;24.80;46.00
21425;DHT22;10873;51.132;16.848;2023-04-26T09:21:45;24.80;46.00
21425;DHT22;10873;51.132;16.848;2023-04-26T09:24:13;24.70;46.00
21425;DHT22;10873;51.132;16.848;2023-04-26T09:26:39;24.80;46.00
21425;DHT22;10873;51.132;16.848;2023-04-26T09:29:13;24.80;46.30
21425;DHT22;10873;51.132;16.848;2023-04-26T09:31:41;24.80;47.80
21425;DHT22;10873;51.132;16.848;2023-04-26T09:34:09;24.80;48.10
21425;DHT22;10873;51.132;16.848;2023-04-26T09:36:48;24.80;48.10
21425;DHT22;10873;51.132;16.848;2023-04-26T09:39:29;24.80;48.30
21425;DHT22;10873;51.132;16.848;2023-04-26T09:41:56;24.80;48.50
21425;DHT22;10873;51.132;16.848;2023-04-26T09:44:23;24.80;49.00
21425;DHT22;10873;51.132;16.848;2023-04-26T09:47:03;24.80;49.60
21425;DHT22;10873;51.132;16.848;2023-04-26T09:49:30;24.80;50.50
21425;DHT22;10873;51.132;16.848;2023-04-26T09:52:01;24.90;50.60
21425;DHT22;10873;51.132;16.848;2023-04-26T09:54:39;24.90;53.40
21425;DHT22;10873;51.132;16.848;2023-04-26T09:57:06;25.10;55.80
21425;DHT22;10873;51.132;16.848;2023-04-26T09:59:39;25.30;57.50
21425;DHT22;10873;51.132;16.848;2023-04-26T10:02:09;25.60;57.80
21425;DHT22;10873;51.132;16.848;2023-04-26T10:04:38;25.90;58.60
21425;DHT22;10873;51.132;16.848;2023-04-26T10:07:04;26.20;58.60
21425;DHT22;10873;51.132;16.848;2023-04-26T10:09:32;26.60;58.50
21425;DHT22;10873;51.132;16.848;2023-04-26T10:12:00;27.00;58.40
21425;DHT22;10873;51.132;16.848;2023-04-26T10:14:26;27.40;58.20
21425;DHT22;10873;51.132;16.848;2023-04-26T10:16:53;27.70;59.00
21425;DHT22;10873;51.132;16.848;2023-04-26T10:19:20;28.20;58.10
21425;DHT22;10873;51.132;16.848;2023-04-26T10:21:47;28.50;58.00
21425;DHT22;10873;51.132;16.848;2023-04-26T10:24:17;28.90;57.70
21425;DHT22;10873;51.132;16.848;2023-04-26T10:26:47;29.20;57.70
21425;DHT22;10873;51.132;16.848;2023-04-26T10:29:16;29.50;57.50
21425;DHT22;10873;51.132;16.848;2023-04-26T10:32:04;29.80;57.40
21425;DHT22;10873;51.132;16.848;2023-04-26T10:34:32;30.10;57.40
21425;DHT22;10873;51.132;16.848;2023-04-26T10:37:10;30.40;57.30
21425;DHT22;10873;51.132;16.848;2023-04-26T10:39:37;30.60;60.40
21425;DHT22;10873;51.132;16.848;2023-04-26T10:42:20;30.50;60.10
21425;DHT22;10873;51.132;16.848;2023-04-26T10:44:50;30.30;53.30
21425;DHT22;10873;51.132;16.848;2023-04-26T10:47:21;30.30;49.80
21425;DHT22;10873;51.132;16.848;2023-04-26T10:49:49;30.30;47.20
21425;DHT22;10873;51.132;16.848;2023-04-26T10:52:16;30.30;45.50
21425;DHT22;10873;51.132;16.848;2023-04-26T10:54:49;30.30;44.90
21425;DHT22;10873;51.132;16.848;2023-04-26T10:57:16;30.30;45.00
21425;DHT22;10873;51.132;16.848;2023-04-26T11:00:22;30.30;45.60
21425;DHT22;10873;51.132;16.848;2023-04-26T11:02:55;30.30;45.40
21425;DHT22;10873;51.132;16.848;2023-04-26T11:05:38;30.30;44.50
21425;DHT22;10873;51.132;16.848;2023-04-26T11:08:14;30.30;44.10
21425;DHT22;10873;51.132;16.848;2023-04-26T11:10:40;30.30;43.40
21425;DHT22;10873;51.132;16.848;2023-04-26T11:13:07;30.30;42.00
21425;DHT22;10873;51.132;16.848;2023-04-26T11:15:34;30.30;41.40
21425;DHT22;10873;51.132;16.848;2023-04-26T11:18:01;30.20;40.20
21425;DHT22;10873;51.132;16.848;2023-04-26T11:20:29;30.10;40.50
21425;DHT22;10873;51.132;16.848;2023-04-26T11:22:56;30.10;40.00
21425;DHT22;10873;51.132;16.848;2023-04-26T11:25:24;30.00;39.00
21425;DHT22;10873;51.132;16.848;2023-04-26T11:27:51;30.00;39.40
21425;DHT22;10873;51.132;16.848;2023-04-26T11:30:21;29.90;39.50
21425;DHT22;10873;51.132;16.848;2023-04-26T11:32:48;29.90;38.90
21425;DHT22;10873;51.132;16.848;2023-04-26T11:35:14;29.90;39.70
21425;DHT22;10873;51.132;16.848;2023-04-26T11:37:41;29.90;40.30
21425;DHT22;10873;51.132;16.848;2023-04-26T11:40:09;30.00;40.40
21425;DHT22;10873;51.132;16.848;2023-04-26T11:42:36;30.00;39.20
21425;DHT22;10873;51.132;16.848;2023-04-26T11:45:02;30.00;39.50
21425;DHT22;10873;51.132;16.848;2023-04-26T11:47:31;30.00;38.80
21425;DHT22;10873;51.132;16.848;2023-04-26T11:50:00;29.80;38.60
21425;DHT22;10873;51.132;16.848;2023-04-26T11:52:26;29.50;39.30
21425;DHT22;10873;51.132;16.848;2023-04-26T11:55:00;29.00;38.90
21425;DHT22;10873;51.132;16.848;2023-04-26T11:57:29;28.60;38.90
21425;DHT22;10873;51.132;16.848;2023-04-26T12:00:07;28.30;39.10
21425;DHT22;10873;51.132;16.848;2023-04-26T12:02:35;28.00;39.40
21425;DHT22;10873;51.132;16.848;2023-04-26T12:05:03;27.70;38.50
21425;DHT22;10873;51.132;16.848;2023-04-26T12:07:33;27.50;37.70
21425;DHT22;10873;51.132;16.848;2023-04-26T12:10:13;27.20;37.50
21425;DHT22;10873;51.132;16.848;2023-04-26T12:12:43;27.00;37.00
21425;DHT22;10873;51.132;16.848;2023-04-26T12:15:10;26.70;36.70
21425;DHT22;10873;51.132;16.848;2023-04-26T12:17:36;26.50;36.60
21425;DHT22;10873;51.132;16.848;2023-04-26T12:20:10;26.30;37.00
21425;DHT22;10873;51.132;16.848;2023-04-26T12:22:36;26.20;37.70
21425;DHT22;10873;51.132;16.848;2023-04-26T12:25:06;26.10;38.20
21425;DHT22;10873;51.132;16.848;2023-04-26T12:27:32;26.00;38.50
21425;DHT22;10873;51.132;16.848;2023-04-26T12:29:59;25.90;38.70
21425;DHT22;10873;51.132;16.848;2023-04-26T12:32:25;25.80;38.70
21425;DHT22;10873;51.132;16.848;2023-04-26T12:34:51;25.80;38.50
21425;DHT22;10873;51.132;16.848;2023-04-26T12:37:18;25.70;38.40
21425;DHT22;10873;51.132;16.848;2023-04-26T12:39:44;25.60;38.20
21425;DHT22;10873;51.132;16.848;2023-04-26T12:42:11;25.50;38.00
21425;DHT22;10873;51.132;16.848;2023-04-26T12:44:37;25.40;38.10
21425;DHT22;10873;51.132;16.848;2023-04-26T12:47:03;25.30;38.20
21425;DHT22;10873;51.132;16.848;2023-04-26T12:49:30;25.30;38.40
21425;DHT22;10873;51.132;16.848;2023-04-26T12:51:56;25.20;38.30
21425;DHT22;10873;51.132;16.848;2023-04-26T12:54:23;25.10;38.30
21425;DHT22;10873;51.132;16.848;2023-04-26T12:56:49;25.10;38.20
21425;DHT22;10873;51.132;16.848;2023-04-26T12:59:16;25.00;38.30
21425;DHT22;10873;51.132;16.848;2023-04-26T13:01:41;25.00;38.90
21425;DHT22;10873;51.132;16.848;2023-04-26T13:04:08;24.90;42.90
21425;DHT22;10873;51.132;16.848;2023-04-26T13:06:34;24.90;43.30
21425;DHT22;10873;51.132;16.848;2023-04-26T13:09:01;24.90;44.30
21425;DHT22;10873;51.132;16.848;2023-04-26T13:11:28;24.80;44.90
21425;DHT22;10873;51.132;16.848;2023-04-26T13:13:54;24.80;44.50
21425;DHT22;10873;51.132;16.848;2023-04-26T13:16:20;24.70;44.10
21425;DHT22;10873;51.132;16.848;2023-04-26T13:18:46;24.80;45.80
21425;DHT22;10873;51.132;16.848;2023-04-26T13:21:12;24.90;47.30
21425;DHT22;10873;51.132;16.848;2023-04-26T13:23:38;25.30;48.40
21425;DHT22;10873;51.132;16.848;2023-04-26T13:26:04;25.70;48.60
21425;DHT22;10873;51.132;16.848;2023-04-26T13:28:33;26.00;48.40
21425;DHT22;10873;51.132;16.848;2023-04-26T13:30:59;26.40;48.20
21425;DHT22;10873;51.132;16.848;2023-04-26T13:33:25;26.70;48.40
21425;DHT22;10873;51.132;16.848;2023-04-26T13:35:51;27.00;47.80
21425;DHT22;10873;51.132;16.848;2023-04-26T13:38:17;27.20;47.30
21425;DHT22;10873;51.132;16.848;2023-04-26T13:40:43;27.50;46.70
21425;DHT22;10873;51.132;16.848;2023-04-26T13:43:09;27.60;46.60
21425;DHT22;10873;51.132;16.848;2023-04-26T13:45:37;27.80;46.50
21425;DHT22;10873;51.132;16.848;2023-04-26T13:48:03;27.90;45.90
21425;DHT22;10873;51.132;16.848;2023-04-26T13:50:29;28.10;46.00
21425;DHT22;10873;51.132;16.848;2023-04-26T13:52:55;28.20;45.90
21425;DHT22;10873;51.132;16.848;2023-04-26T13:55:22;28.30;45.00
21425;DHT22;10873;51.132;16.848;2023-04-26T13:57:48;28.40;45.90
21425;DHT22;10873;51.132;16.848;2023-04-26T14:00:15;28.50;44.30
21425;DHT22;10873;51.132;16.848;2023-04-26T14:02:42;28.60;44.00
21425;DHT22;10873;51.132;16.848;2023-04-26T14:05:08;28.70;44.00
21425;DHT22;10873;51.132;16.848;2023-04-26T14:07:34;28.70;44.40
21425;DHT22;10873;51.132;16.848;2023-04-26T14:10:00;28.80;42.90
21425;DHT22;10873;51.132;16.848;2023-04-26T14:12:27;28.90;43.30
21425;DHT22;10873;51.132;16.848;2023-04-26T14:14:53;29.00;43.10
21425;DHT22;10873;51.132;16.848;2023-04-26T14:17:19;29.10;42.70
21425;DHT22;10873;51.132;16.848;2023-04-26T14:19:47;29.10;42.50
21425;DHT22;10873;51.132;16.848;2023-04-26T14:22:13;29.10;40.50
21425;DHT22;10873;51.132;16.848;2023-04-26T14:24:42;29.10;39.80
21425;DHT22;10873;51.132;16.848;2023-04-26T14:27:08;29.10;39.70
21425;DHT22;10873;51.132;16.848;2023-04-26T14:29:34;29.00;39.60
21425;DHT22;10873;51.132;16.848;2023-04-26T14:32:00;29.00;40.20
21425;DHT22;10873;51.132;16.848;2023-04-26T14:34:26;29.00;41.30
21425;DHT22;10873;51.132;16.848;2023-04-26T14:36:54;29.00;41.50
21425;DHT22;10873;51.132;16.848;2023-04-26T14:39:21;29.10;40.80
21425;DHT22;10873;51.132;16.848;2023-04-26T14:41:47;28.80;42.10
21425;DHT22;10873;51.132;16.848;2023-04-26T14:44:13;28.50;41.10
21425;DHT22;10873;51.132;16.848;2023-04-26T14:46:39;28.20;41.00
21425;DHT22;10873;51.132;16.848;2023-04-26T14:49:06;27.90;41.10
21425;DHT22;10873;51.132;16.848;2023-04-26T14:51:32;27.60;42.10
21425;DHT22;10873;51.132;16.848;2023-04-26T14:53:59;27.30;41.40
21425;DHT22;10873;51.132;16.848;2023-04-26T14:56:25;27.10;41.00
21425;DHT22;10873;51.132;16.848;2023-04-26T14:58:51;26.80;41.60
21425;DHT22;10873;51.132;16.848;2023-04-26T15:01:17;26.60;40.80
21425;DHT22;10873;51.132;16.848;2023-04-26T15:03:43;26.50;40.70
21425;DHT22;10873;51.132;16.848;2023-04-26T15:06:09;26.30;40.80
21425;DHT22;10873;51.132;16.848;2023-04-26T15:08:35;26.20;41.20
21425;DHT22;10873;51.132;16.848;2023-04-26T15:11:03;26.00;41.30
21425;DHT22;10873;51.132;16.848;2023-04-26T15:13:30;26.00;41.40
21425;DHT22;10873;51.132;16.848;2023-04-26T15:15:56;25.90;41.10